Time;durP1;ratioP1;P1;durP2;ratioP2;P2;SDS_P1;SDS_P2;PMS_P1;PMS_P2;Temp;Humidity;BMP_temperature;BMP_pressure;BME280_temperature;BME280_humidity;BME280_pressure;Samples;Min_cycle;Max_cycle;Signal;HPM_P1;HPM_P2
2022/09/21 00:01:19;;;;;;;5.30;2.53;;;;;;;5.92;100.00;97017.88;5067794;28;20040;-76
2022/09/21 00:03:45;;;;;;;6.43;2.97;;;;;;;5.90;100.00;97020.59;5055575;28;20068;-76
2022/09/21 00:06:16;;;;;;;6.60;3.20;;;;;;;5.91;100.00;97027.47;5067227;28;20090;-76
2022/09/21 00:08:43;;;;;;;7.87;3.20;;;;;;;5.95;100.00;97014.25;5070477;28;20045;-75
2022/09/21 00:11:23;;;;;;;7.87;3.40;;;;;;;5.99;100.00;97013.06;5063957;28;20043;-76
2022/09/21 00:14:11;;;;;;;8.63;3.50;;;;;;;5.83;100.00;97018.53;5047412;28;20063;-76
2022/09/21 00:16:38;;;;;;;6.87;3.43;;;;;;;5.78;100.00;97011.03;5059401;28;20024;-75
2022/09/21 00:19:05;;;;;;;6.33;3.13;;;;;;;5.68;100.00;97017.84;5061294;28;20025;-76
2022/09/21 00:21:31;;;;;;;8.43;3.37;;;;;;;5.77;100.00;97019.81;5060869;28;20685;-76
2022/09/21 00:23:58;;;;;;;8.47;3.70;;;;;;;5.75;100.00;97010.44;5060872;28;20028;-76
2022/09/21 00:26:25;;;;;;;6.53;3.47;;;;;;;5.76;100.00;97012.91;5055767;28;20051;-76
2022/09/21 00:28:58;;;;;;;5.47;2.90;;;;;;;5.71;100.00;97014.19;5058649;28;20033;-75
2022/09/21 00:31:25;;;;;;;7.43;3.95;;;;;;;5.76;100.00;97010.31;5069462;28;20476;-76
2022/09/21 00:33:51;;;;;;;7.23;3.37;;;;;;;5.69;100.00;97016.91;5057446;28;20683;-76
2022/09/21 00:36:19;;;;;;;5.40;2.90;;;;;;;5.68;100.00;97015.25;5066920;28;20035;-76
2022/09/21 00:38:53;;;;;;;6.63;3.23;;;;;;;5.65;100.00;97015.47;5066744;28;20117;-76
2022/09/21 00:41:19;;;;;;;5.22;2.80;;;;;;;5.59;100.00;97010.69;5062605;28;20047;-75
2022/09/21 00:43:48;;;;;;;6.97;3.63;;;;;;;5.50;100.00;97009.56;5066897;28;20040;-76
2022/09/21 00:46:29;;;;;;;6.97;3.10;;;;;;;5.54;100.00;97008.41;5061472;28;20032;-75
2022/09/21 00:48:57;;;;;;;8.43;3.00;;;;;;;5.52;100.00;97012.06;5068411;28;20115;-76
2022/09/21 00:51:23;;;;;;;7.93;2.80;;;;;;;5.54;100.00;97015.41;5067967;28;20024;-76
2022/09/21 00:53:55;;;;;;;8.63;3.20;;;;;;;5.52;100.00;97010.28;5069002;28;20060;-76
2022/09/21 00:56:22;;;;;;;8.93;3.10;;;;;;;5.55;100.00;97017.91;5068587;28;20392;-76
2022/09/21 00:58:50;;;;;;;5.10;2.90;;;;;;;5.54;100.00;97015.41;5065262;28;20036;-76
2022/09/21 01:01:17;;;;;;;4.97;2.67;;;;;;;5.56;100.00;97008.28;5065298;28;20036;-76
2022/09/21 01:03:45;;;;;;;5.37;2.70;;;;;;;5.47;100.00;97001.97;5058255;28;20188;-76
2022/09/21 01:06:17;;;;;;;6.87;3.00;;;;;;;5.40;100.00;97013.78;5054494;28;20482;-76
2022/09/21 01:08:45;;;;;;;5.87;2.93;;;;;;;5.37;100.00;97011.38;5059362;28;20029;-76
2022/09/21 01:11:10;;;;;;;7.37;3.00;;;;;;;5.35;100.00;97016.69;5066733;28;20144;-75
2022/09/21 01:14:03;;;;;;;6.33;3.30;;;;;;;5.28;100.00;97017.22;5048806;28;20028;-76
2022/09/21 01:17:01;;;;;;;6.93;3.40;;;;;;;5.23;100.00;97024.53;5063055;28;20485;-76
2022/09/21 01:19:42;;;;;;;8.23;3.70;;;;;;;5.11;100.00;97021.00;5062264;28;20417;-76
2022/09/21 01:22:17;;;;;;;7.53;3.03;;;;;;;5.12;100.00;97018.28;5067761;28;20060;-76
2022/09/21 01:25:24;;;;;;;7.53;2.97;;;;;;;5.15;100.00;97019.84;5065021;28;20520;-76
2022/09/21 01:28:00;;;;;;;6.63;2.83;;;;;;;5.21;100.00;97011.63;5064954;28;20041;-75
2022/09/21 01:30:25;;;;;;;7.33;2.73;;;;;;;5.25;100.00;97013.06;5062184;28;20128;-75
2022/09/21 01:33:07;;;;;;;5.93;2.53;;;;;;;5.24;100.00;97008.78;5066098;28;20025;-76
2022/09/21 01:35:40;;;;;;;6.67;3.30;;;;;;;5.21;100.00;97011.63;5058935;28;20047;-77
2022/09/21 01:38:15;;;;;;;7.93;3.73;;;;;;;5.10;100.00;97014.97;5059678;28;20025;-76
2022/09/21 01:40:46;;;;;;;7.30;3.80;;;;;;;5.02;100.00;97014.66;5068277;28;20044;-76
2022/09/21 01:43:20;;;;;;;5.80;3.27;;;;;;;5.01;100.00;97015.59;5054691;28;20090;-76
2022/09/21 01:45:53;;;;;;;7.57;3.40;;;;;;;4.92;100.00;97022.25;5040618;28;20071;-76
2022/09/21 01:48:21;;;;;;;6.25;3.13;;;;;;;4.94;100.00;97019.56;5068287;28;20028;-76
2022/09/21 01:50:54;;;;;;;6.00;3.33;;;;;;;4.97;100.00;97017.59;5065567;28;20037;-77
2022/09/21 01:53:31;;;;;;;6.85;3.53;;;;;;;4.94;100.00;97015.19;5075161;28;20063;-76
2022/09/21 01:56:03;;;;;;;5.53;2.97;;;;;;;4.98;100.00;97018.41;5060926;28;20040;-76
2022/09/21 01:58:34;;;;;;;6.30;3.80;;;;;;;4.89;100.00;97017.25;5064119;28;20039;-76
2022/09/21 02:01:00;;;;;;;5.87;3.33;;;;;;;4.93;100.00;97021.34;5061777;28;20033;-76
2022/09/21 02:03:51;;;;;;;7.97;3.50;;;;;;;4.77;100.00;97018.13;5068582;28;20032;-75
2022/09/21 02:06:18;;;;;;;5.03;3.10;;;;;;;4.73;100.00;97016.66;5064063;28;20350;-76
2022/09/21 02:08:45;;;;;;;4.87;2.90;;;;;;;4.69;100.00;97020.38;5062521;28;20127;-76
2022/09/21 02:11:12;;;;;;;4.87;2.97;;;;;;;4.59;100.00;97022.78;5049001;28;20044;-76
2022/09/21 02:13:42;;;;;;;5.67;3.27;;;;;;;4.60;100.00;97021.84;5066471;28;20033;-75
2022/09/21 02:16:23;;;;;;;10.30;4.47;;;;;;;4.58;100.00;97021.13;5069570;28;20404;-76
2022/09/21 02:18:58;;;;;;;6.43;4.03;;;;;;;4.62;100.00;97024.34;5071866;28;20444;-75
2022/09/21 02:21:49;;;;;;;7.30;3.47;;;;;;;4.67;100.00;97022.28;5064233;28;20036;-76
2022/09/21 02:24:20;;;;;;;5.57;2.80;;;;;;;4.66;100.00;97017.97;5064061;28;20032;-76
2022/09/21 02:27:05;;;;;;;6.87;3.80;;;;;;;4.61;100.00;97014.88;5068051;28;20037;-76
2022/09/21 02:29:40;;;;;;;5.50;3.60;;;;;;;4.59;100.00;97017.56;5066713;28;20135;-76
2022/09/21 02:32:19;;;;;;;9.70;3.10;;;;;;;4.59;100.00;97019.34;5060622;28;20028;-75
2022/09/21 02:34:49;;;;;;;5.33;3.20;;;;;;;4.56;100.00;97015.19;5068504;28;20108;-76
2022/09/21 02:37:35;;;;;;;5.77;3.13;;;;;;;4.58;100.00;97017.69;5061376;28;20029;-76
2022/09/21 02:40:14;;;;;;;5.80;3.17;;;;;;;4.49;100.00;97014.78;5065548;28;20096;-76
2022/09/21 02:42:44;;;;;;;6.20;3.03;;;;;;;4.39;100.00;97013.72;5066643;28;20039;-76
2022/09/21 02:45:18;;;;;;;5.30;3.17;;;;;;;4.41;100.00;97021.41;5068988;28;20028;-76
2022/09/21 02:47:58;;;;;;;3.83;2.43;;;;;;;4.44;100.00;97022.03;5072130;28;20425;-76
2022/09/21 02:50:49;;;;;;;4.77;2.47;;;;;;;4.42;100.00;97013.47;5063117;28;20505;-76
2022/09/21 02:53:32;;;;;;;5.23;2.33;;;;;;;4.40;100.00;97017.97;5061084;28;20033;-75
2022/09/21 02:56:05;;;;;;;3.38;1.98;;;;;;;4.39;100.00;97013.72;5057359;28;20572;-76
2022/09/21 02:58:40;;;;;;;3.63;2.05;;;;;;;4.29;100.00;97015.22;5069307;28;20103;-75
2022/09/21 03:01:10;;;;;;;4.40;1.90;;;;;;;4.27;100.00;97024.94;5058343;28;20112;-75
2022/09/21 03:03:36;;;;;;;4.47;2.20;;;;;;;4.31;100.00;97015.16;5046447;28;20036;-75
2022/09/21 03:06:01;;;;;;;3.77;1.83;;;;;;;4.34;100.00;97017.56;5054875;28;20490;-75
2022/09/21 03:08:27;;;;;;;3.23;1.70;;;;;;;4.35;100.00;97016.59;5059979;28;20066;-75
2022/09/21 03:10:53;;;;;;;6.47;2.07;;;;;;;4.32;100.00;97017.63;5060231;28;20069;-76
2022/09/21 03:13:19;;;;;;;3.57;1.87;;;;;;;4.34;100.00;97018.38;5069920;28;20058;-76
2022/09/21 03:15:46;;;;;;;6.90;2.37;;;;;;;4.26;100.00;97018.06;5064628;28;20456;-75
2022/09/21 03:18:12;;;;;;;5.40;2.40;;;;;;;4.32;100.00;97016.81;5065304;28;20182;-75
2022/09/21 03:20:39;;;;;;;4.87;2.10;;;;;;;4.26;100.00;97015.47;5065599;28;20033;-76
2022/09/21 03:23:06;;;;;;;4.03;2.43;;;;;;;4.25;100.00;97021.59;5061131;28;20089;-75
2022/09/21 03:25:32;;;;;;;6.30;2.40;;;;;;;4.27;100.00;97024.94;5059973;28;20107;-75
2022/09/21 03:27:58;;;;;;;4.47;2.40;;;;;;;4.22;100.00;97022.59;5061600;28;20127;-75
2022/09/21 03:30:25;;;;;;;7.10;2.87;;;;;;;4.16;100.00;97027.41;5061946;28;20028;-75
2022/09/21 03:32:52;;;;;;;4.60;2.43;;;;;;;4.20;100.00;97034.09;5062010;28;20124;-75
2022/09/21 03:35:24;;;;;;;4.70;2.30;;;;;;;4.22;100.00;97027.81;5065526;28;20040;-76
2022/09/21 03:37:49;;;;;;;17.00;10.27;;;;;;;4.20;100.00;97028.88;5060836;28;20127;-75
2022/09/21 03:40:16;;;;;;;21.47;14.47;;;;;;;4.20;100.00;97029.72;5061402;28;20120;-75
2022/09/21 03:42:42;;;;;;;9.70;5.80;;;;;;;4.21;100.00;97041.78;5066953;28;20028;-76
2022/09/21 03:45:09;;;;;;;13.80;6.37;;;;;;;4.18;100.00;97030.72;5065331;28;20039;-75
2022/09/21 03:47:36;;;;;;;9.67;4.97;;;;;;;4.06;100.00;97031.53;5065731;28;20494;-76
2022/09/21 03:50:02;;;;;;;4.90;2.30;;;;;;;4.04;100.00;97039.44;5064778;28;20036;-75
2022/09/21 03:52:28;;;;;;;5.27;2.43;;;;;;;3.99;100.00;97041.50;5061556;28;20032;-75
2022/09/21 03:54:54;;;;;;;7.20;3.23;;;;;;;4.01;100.00;97037.88;5060978;28;20094;-75
2022/09/21 03:57:20;;;;;;;9.50;4.03;;;;;;;4.01;100.00;97039.63;5064132;28;20175;-76
2022/09/21 03:59:46;;;;;;;27.30;18.73;;;;;;;3.91;100.00;97039.38;5065215;28;20518;-75
2022/09/21 04:02:11;;;;;;;20.33;13.73;;;;;;;3.98;100.00;97032.03;5065134;28;20025;-75
2022/09/21 04:04:37;;;;;;;11.97;5.83;;;;;;;4.01;100.00;97037.88;5036530;28;20032;-75
2022/09/21 04:07:03;;;;;;;5.70;3.13;;;;;;;3.91;100.00;97036.78;5070077;28;20378;-75
2022/09/21 04:09:30;;;;;;;6.83;2.27;;;;;;;3.86;100.00;97046.66;5059316;28;20025;-75
2022/09/21 04:11:55;;;;;;;4.53;2.20;;;;;;;3.82;100.00;97039.97;5058035;28;20033;-75
2022/09/21 04:14:22;;;;;;;6.83;2.40;;;;;;;3.79;100.00;97045.41;5059477;28;20036;-75
2022/09/21 04:16:48;;;;;;;4.37;2.17;;;;;;;3.67;100.00;97040.97;5069802;28;20035;-75
2022/09/21 04:19:15;;;;;;;4.00;1.97;;;;;;;3.60;100.00;97040.50;5070355;28;20505;-75
2022/09/21 04:21:41;;;;;;;3.73;1.93;;;;;;;3.58;100.00;97052.75;5068703;28;20073;-74
2022/09/21 04:24:08;;;;;;;4.27;1.97;;;;;;;3.54;100.00;97046.91;5061451;28;20425;-74
2022/09/21 04:26:34;;;;;;;8.13;2.13;;;;;;;3.49;100.00;97042.97;5067449;28;20486;-74
2022/09/21 04:29:01;;;;;;;5.33;2.30;;;;;;;3.45;100.00;97047.47;5067227;28;20109;-75
2022/09/21 04:31:28;;;;;;;4.70;2.60;;;;;;;3.48;100.00;97047.28;5069944;28;20032;-74
2022/09/21 04:33:56;;;;;;;3.60;1.80;;;;;;;3.44;100.00;97048.44;5068136;28;20036;-74
2022/09/21 04:36:24;;;;;;;4.40;2.43;;;;;;;3.43;100.00;97045.94;5067187;28;20111;-73
2022/09/21 04:38:50;;;;;;;4.87;2.07;;;;;;;3.36;100.00;97053.28;5068666;28;20032;-74
2022/09/21 04:41:17;;;;;;;3.83;1.87;;;;;;;3.35;100.00;97041.19;5065680;28;20169;-73
2022/09/21 04:43:44;;;;;;;4.77;2.00;;;;;;;3.30;100.00;97048.44;5070002;28;20115;-73
2022/09/21 04:46:12;;;;;;;6.00;2.40;;;;;;;3.22;100.00;97051.53;5068387;28;20082;-74
2022/09/21 04:48:39;;;;;;;4.10;2.10;;;;;;;3.19;100.00;97067.31;5062390;28;20045;-74
2022/09/21 04:51:06;;;;;;;7.33;3.40;;;;;;;3.05;100.00;97056.88;5066348;28;20389;-74
2022/09/21 04:53:33;;;;;;;5.83;2.50;;;;;;;2.93;100.00;97058.47;5050754;28;20071;-74
2022/09/21 04:55:59;;;;;;;9.67;2.87;;;;;;;2.88;100.00;97063.09;5064247;28;20121;-74
2022/09/21 04:58:25;;;;;;;9.60;3.20;;;;;;;2.95;100.00;97067.03;5062759;28;20449;-74
2022/09/21 05:00:52;;;;;;;7.27;3.10;;;;;;;3.06;100.00;97068.97;5069721;28;20037;-74
2022/09/21 05:03:18;;;;;;;6.90;2.90;;;;;;;3.00;100.00;97071.94;5067582;28;20035;-73
2022/09/21 05:05:53;;;;;;;8.93;3.20;;;;;;;3.06;100.00;97075.00;5062764;28;20036;-74
2022/09/21 05:10:01;;;;;;;8.07;3.80;;;;;;;3.06;100.00;97080.19;5060606;28;20847;-74
2022/09/21 05:11:06;;;;;;;6.57;2.83;;;;;;;3.18;100.00;97080.38;5074742;28;20028;-74
2022/09/21 05:13:32;;;;;;;6.10;2.37;;;;;;;3.24;100.00;97075.66;5063266;28;20129;-74
2022/09/21 05:15:57;;;;;;;10.50;3.67;;;;;;;3.15;100.00;97080.56;5065275;28;20025;-74
2022/09/21 05:18:23;;;;;;;9.07;3.33;;;;;;;3.19;100.00;97077.69;5068366;28;20025;-74
2022/09/21 05:20:56;;;;;;;10.07;2.97;;;;;;;3.20;100.00;97079.38;5067973;28;20044;-74
2022/09/21 05:23:22;;;;;;;8.68;4.30;;;;;;;3.52;100.00;97080.00;5066535;28;20024;-74
2022/09/21 05:25:48;;;;;;;10.77;3.10;;;;;;;3.90;100.00;97063.75;5062914;28;20067;-74
2022/09/21 05:28:15;;;;;;;6.60;3.07;;;;;;;4.11;100.00;97063.31;5060375;28;20466;-74
2022/09/21 05:30:48;;;;;;;8.07;3.10;;;;;;;4.32;100.00;97063.66;5068440;28;20032;-74
2022/09/21 05:33:19;;;;;;;4.65;2.70;;;;;;;4.97;100.00;97064.50;5055871;28;20072;-74
2022/09/21 05:35:57;;;;;;;7.77;2.80;;;;;;;5.30;100.00;97052.72;5056256;28;20040;-74
2022/09/21 05:38:23;;;;;;;5.57;2.77;;;;;;;5.44;100.00;97052.56;5067303;28;20024;-74
2022/09/21 05:40:52;;;;;;;10.47;4.43;;;;;;;5.85;100.00;97054.03;5060185;28;20028;-74
2022/09/21 05:43:18;;;;;;;5.13;2.60;;;;;;;6.19;100.00;97046.38;5065593;28;20031;-74
2022/09/21 05:46:00;;;;;;;6.27;3.03;;;;;;;6.71;100.00;97053.00;5064687;28;20123;-75
2022/09/21 05:49:09;;;;;;;5.13;2.27;;;;;;;6.95;100.00;97042.47;5065299;28;20025;-75
2022/09/21 05:51:37;;;;;;;4.90;2.33;;;;;;;6.97;100.00;97047.56;5069850;28;20048;-74
2022/09/21 05:54:57;;;;;;;5.33;2.50;;;;;;;7.39;100.00;97050.44;5069677;28;20114;-75
2022/09/21 05:57:41;;;;;;;4.27;1.80;;;;;;;7.64;100.00;97047.56;5033713;28;20513;-75
2022/09/21 06:00:33;;;;;;;9.47;3.13;;;;;;;8.09;100.00;97047.47;5065435;28;20051;-75
2022/09/21 06:03:31;;;;;;;11.63;5.23;;;;;;;7.98;100.00;97042.25;5059973;28;20396;-75
2022/09/21 06:05:58;;;;;;;5.30;2.50;;;;;;;8.29;100.00;97050.28;5065342;28;20068;-75
2022/09/21 06:08:24;;;;;;;3.67;1.70;;;;;;;8.19;100.00;97052.81;5064939;28;20040;-75
2022/09/21 06:10:50;;;;;;;3.63;1.70;;;;;;;7.84;100.00;97053.84;5066952;28;20044;-75
2022/09/21 06:13:16;;;;;;;4.33;1.60;;;;;;;7.73;100.00;97054.69;5068162;28;20029;-74
2022/09/21 06:15:42;;;;;;;4.77;1.57;;;;;;;7.64;100.00;97051.97;5056569;28;20066;-75
2022/09/21 06:18:08;;;;;;;4.80;1.90;;;;;;;8.14;100.00;97057.56;5066040;28;20025;-75
2022/09/21 06:20:34;;;;;;;4.87;1.90;;;;;;;8.63;100.00;97051.00;5046320;28;20059;-74
2022/09/21 06:23:01;;;;;;;3.87;1.60;;;;;;;8.19;100.00;97052.81;5065993;28;20020;-75
2022/09/21 06:25:26;;;;;;;4.20;1.80;;;;;;;8.24;100.00;97055.88;5068414;28;20085;-75
2022/09/21 06:27:52;;;;;;;5.67;1.90;;;;;;;8.69;100.00;97055.72;5067247;28;20033;-75
2022/09/21 06:30:18;;;;;;;3.90;1.63;;;;;;;9.01;100.00;97045.16;5063136;28;20533;-75
2022/09/21 06:32:43;;;;;;;4.17;2.13;;;;;;;8.71;100.00;97053.78;5065904;28;20039;-75
2022/09/21 06:35:09;;;;;;;4.10;2.00;;;;;;;7.86;100.00;97062.41;5060682;28;20037;-75
2022/09/21 06:37:37;;;;;;;3.93;1.80;;;;;;;8.39;100.00;97049.44;5064651;28;20127;-75
2022/09/21 06:40:03;;;;;;;4.27;1.80;;;;;;;8.41;100.00;97051.91;5045732;28;20017;-75
2022/09/21 06:42:28;;;;;;;4.93;2.20;;;;;;;8.85;100.00;97053.50;5067068;28;20051;-75
2022/09/21 06:44:54;;;;;;;4.97;2.00;;;;;;;9.30;100.00;97044.47;5065497;28;20521;-75
2022/09/21 06:47:20;;;;;;;3.90;2.17;;;;;;;9.14;100.00;97050.19;5064917;28;20505;-75
2022/09/21 06:49:46;;;;;;;6.70;2.90;;;;;;;9.56;100.00;97034.38;5066044;28;20482;-75
2022/09/21 06:52:11;;;;;;;4.47;1.93;;;;;;;10.26;100.00;97037.81;5066321;28;20060;-75
2022/09/21 06:54:38;;;;;;;4.33;2.40;;;;;;;10.36;100.00;97033.41;5066716;28;20067;-75
2022/09/21 06:57:04;;;;;;;5.13;2.33;;;;;;;10.50;100.00;97043.53;5058897;28;20708;-75
2022/09/21 06:59:29;;;;;;;4.93;2.33;;;;;;;11.01;100.00;97037.09;5065724;28;20036;-75
2022/09/21 07:01:57;;;;;;;5.00;2.47;;;;;;;10.32;100.00;97042.53;5063030;28;20032;-75
2022/09/21 07:04:27;;;;;;;6.40;2.10;;;;;;;10.85;100.00;97039.47;5065594;28;20067;-75
2022/09/21 07:06:53;;;;;;;5.50;2.27;;;;;;;10.70;100.00;97044.34;5048084;28;20117;-75
2022/09/21 07:09:19;;;;;;;5.83;2.77;;;;;;;10.24;100.00;97045.84;5061906;28;20068;-75
2022/09/21 07:11:46;;;;;;;5.97;2.80;;;;;;;10.60;100.00;97049.63;5063987;28;20040;-75
2022/09/21 07:14:12;;;;;;;7.07;2.87;;;;;;;11.04;100.00;97047.34;5064152;28;20036;-75
2022/09/21 07:16:38;;;;;;;5.67;2.90;;;;;;;11.51;100.00;97049.97;5058449;28;20093;-75
2022/09/21 07:19:04;;;;;;;4.70;2.57;;;;;;;11.65;100.00;97050.47;5066710;28;20047;-76
2022/09/21 07:21:30;;;;;;;7.00;2.83;;;;;;;12.05;100.00;97051.94;5056538;28;20037;-75
2022/09/21 07:23:58;;;;;;;7.07;3.07;;;;;;;13.15;100.00;97038.38;5063579;28;20032;-75
2022/09/21 07:26:23;;;;;;;8.20;3.30;;;;;;;11.27;100.00;97063.63;5045490;28;20039;-75
2022/09/21 07:28:49;;;;;;;6.10;3.90;;;;;;;12.93;100.00;97047.63;5064348;28;20036;-75
2022/09/21 07:31:15;;;;;;;7.37;3.97;;;;;;;13.39;100.00;97043.81;5066641;28;20070;-75
2022/09/21 07:33:43;;;;;;;12.20;5.47;;;;;;;13.64;100.00;97043.94;5057907;28;20059;-75
2022/09/21 07:36:10;;;;;;;17.63;9.43;;;;;;;13.43;100.00;97050.44;5063307;28;20029;-75
2022/09/21 07:38:41;;;;;;;12.43;7.30;;;;;;;13.26;100.00;97046.06;5066052;28;20370;-75
2022/09/21 07:41:09;;;;;;;12.63;7.63;;;;;;;14.74;100.00;97044.72;5061274;28;20025;-76
2022/09/21 07:43:38;;;;;;;11.23;6.03;;;;;;;14.15;100.00;97047.41;5047150;28;20493;-75
2022/09/21 07:46:04;;;;;;;8.13;3.93;;;;;;;15.11;100.00;97046.84;5046741;28;20058;-75
2022/09/21 07:48:29;;;;;;;7.63;3.90;;;;;;;15.32;100.00;97047.16;5065077;28;20043;-75
2022/09/21 07:51:04;;;;;;;5.87;3.83;;;;;;;14.96;100.00;97041.41;5064731;28;20040;-76
2022/09/21 07:53:32;;;;;;;6.60;2.85;;;;;;;15.50;100.00;97041.66;5062961;28;20024;-76
2022/09/21 07:56:03;;;;;;;6.38;3.17;;;;;;;15.53;100.00;97037.84;5046548;28;20064;-76
2022/09/21 08:01:13;;;;;;;10.55;4.00;;;;;;;16.43;100.00;97034.75;5070733;28;20105;-76
2022/09/21 08:03:39;;;;;;;8.80;3.97;;;;;;;17.12;100.00;97040.88;5056822;28;20460;-75
2022/09/21 08:06:05;;;;;;;8.32;2.67;;;;;;;16.73;100.00;97043.66;5044145;28;20051;-76
2022/09/21 08:08:31;;;;;;;5.75;2.50;;;;;;;17.46;92.72;97042.19;5057680;28;20414;-75
2022/09/21 08:11:03;;;;;;;7.43;3.50;;;;;;;18.57;88.88;97029.66;5041253;28;20044;-76
2022/09/21 08:13:28;;;;;;;10.80;5.32;;;;;;;17.54;94.09;97034.16;5060502;28;20044;-77
2022/09/21 08:16:00;;;;;;;7.43;2.83;;;;;;;17.05;95.94;97039.13;5055348;28;20155;-75
2022/09/21 08:18:27;;;;;;;4.95;2.05;;;;;;;17.76;95.20;97036.88;5063230;28;20060;-76
2022/09/21 08:20:58;;;;;;;5.15;2.40;;;;;;;17.56;94.12;97037.44;5065589;28;20112;-75
2022/09/21 08:23:27;;;;;;;4.57;1.92;;;;;;;18.24;86.00;97039.94;5052143;28;20039;-76
2022/09/21 08:26:05;;;;;;;7.75;2.25;;;;;;;17.51;93.34;97039.00;5058471;28;20815;-75
2022/09/21 08:28:30;;;;;;;3.25;1.40;;;;;;;17.01;85.29;97043.16;5063941;28;20071;-76
2022/09/21 08:31:03;;;;;;;5.85;1.95;;;;;;;18.10;92.10;97045.13;5063132;28;20056;-75
2022/09/21 08:33:29;;;;;;;4.45;1.85;;;;;;;18.61;84.25;97034.44;5059718;28;20147;-76
2022/09/21 08:35:56;;;;;;;6.38;1.95;;;;;;;18.17;79.31;97037.22;5064607;28;20115;-76
2022/09/21 08:38:23;;;;;;;5.53;1.85;;;;;;;18.41;80.89;97037.88;5049037;28;20091;-76
2022/09/21 08:40:50;;;;;;;7.28;3.28;;;;;;;17.90;81.41;97036.06;5064733;28;21023;-76
2022/09/21 08:43:35;;;;;;;3.00;1.20;;;;;;;17.63;81.42;97038.34;5063425;28;20036;-75
2022/09/21 08:46:23;;;;;;;3.75;1.25;;;;;;;18.96;73.90;97039.06;5072520;28;20020;-76
2022/09/21 08:49:02;;;;;;;4.45;1.27;;;;;;;18.44;66.58;97040.16;5030288;28;20040;-76
2022/09/21 08:51:32;;;;;;;4.10;1.40;;;;;;;18.63;76.04;97044.06;5032710;28;20167;-75
2022/09/21 08:54:02;;;;;;;3.67;1.60;;;;;;;19.30;69.71;97035.63;5031020;28;20501;-76
2022/09/21 08:56:29;;;;;;;2.78;1.15;;;;;;;17.92;69.98;97044.69;5029061;28;20441;-76
2022/09/21 08:58:55;;;;;;;5.18;1.30;;;;;;;18.91;71.41;97038.81;5063228;28;20120;-76
2022/09/21 09:01:58;;;;;;;4.97;1.63;;;;;;;18.59;69.73;97039.09;5076885;28;20552;-76
2022/09/21 09:04:52;;;;;;;4.75;1.10;;;;;;;19.66;62.39;97040.81;5065347;28;20020;-76
2022/09/21 09:07:46;;;;;;;4.20;1.38;;;;;;;19.76;62.61;97027.94;5065589;28;20028;-76
2022/09/21 09:10:42;;;;;;;5.18;1.17;;;;;;;20.16;55.64;97017.44;5039464;28;20033;-76
2022/09/21 09:13:32;;;;;;;2.00;0.68;;;;;;;19.96;56.34;97025.38;5063980;28;20398;-76
2022/09/21 09:16:19;;;;;;;4.05;0.95;;;;;;;17.87;59.81;97033.78;5060218;28;20028;-76
2022/09/21 09:18:52;;;;;;;2.42;0.90;;;;;;;17.82;58.79;97030.84;5064427;28;20047;-76
2022/09/21 09:21:37;;;;;;;3.25;0.70;;;;;;;16.64;65.42;97029.63;5064424;28;20512;-76
2022/09/21 09:24:16;;;;;;;3.20;1.00;;;;;;;16.14;71.69;97040.75;5067108;28;20040;-75
2022/09/21 09:26:48;;;;;;;2.00;0.60;;;;;;;17.17;73.04;97033.19;5068045;28;20024;-75
2022/09/21 09:29:31;;;;;;;2.33;0.73;;;;;;;18.00;67.98;97022.47;5068200;28;20487;-76
2022/09/21 09:32:00;;;;;;;2.38;0.73;;;;;;;17.06;71.59;97028.31;5068183;28;20398;-75
2022/09/21 09:34:43;;;;;;;3.85;0.90;;;;;;;17.03;72.53;97030.50;5047330;28;20119;-76
2022/09/21 09:37:14;;;;;;;4.50;1.42;;;;;;;18.23;58.77;97019.66;5067538;28;20036;-76
2022/09/21 09:39:41;;;;;;;1.67;0.85;;;;;;;18.60;58.47;97019.44;5067624;28;20032;-75
2022/09/21 09:42:20;;;;;;;3.75;1.08;;;;;;;16.40;70.36;97029.81;5068036;28;20036;-75
2022/09/21 09:44:53;;;;;;;2.03;0.77;;;;;;;16.73;70.67;97019.75;5064808;28;20123;-75
2022/09/21 09:47:43;;;;;;;1.23;0.50;;;;;;;18.58;61.86;97016.16;5061800;28;20059;-76
2022/09/21 09:50:12;;;;;;;2.05;0.50;;;;;;;17.70;61.33;97021.66;5054427;28;20828;-76
2022/09/21 09:52:39;;;;;;;2.78;0.80;;;;;;;18.36;56.68;97017.16;5055993;28;20024;-75
2022/09/21 09:55:38;;;;;;;2.75;0.70;;;;;;;19.44;54.17;97025.88;5055628;28;20556;-76
2022/09/21 09:58:15;;;;;;;3.03;0.55;;;;;;;18.81;54.36;97025.81;5056777;28;20059;-76
2022/09/21 10:00:41;;;;;;;2.28;0.50;;;;;;;19.30;50.87;97022.28;5054647;28;20701;-76
2022/09/21 10:03:17;;;;;;;1.35;0.50;;;;;;;19.51;50.29;97019.53;5055226;28;20060;-76
2022/09/21 10:05:42;;;;;;;0.45;0.25;;;;;;;18.96;49.15;97020.41;5070704;28;20038;-76
2022/09/21 10:08:41;;;;;;;1.25;0.40;;;;;;;19.47;48.37;97018.28;5073752;28;20682;-76
2022/09/21 10:11:08;;;;;;;0.68;0.40;;;;;;;19.17;50.38;97022.19;5065814;28;20128;-76
2022/09/21 10:13:36;;;;;;;3.92;0.93;;;;;;;18.89;53.61;97012.34;5061198;28;20032;-75
2022/09/21 10:16:10;;;;;;;2.83;0.55;;;;;;;19.80;49.73;97004.34;5057505;28;20032;-76
2022/09/21 10:18:39;;;;;;;0.95;0.55;;;;;;;19.61;50.17;97005.84;5063503;28;20362;-77
2022/09/21 10:21:18;;;;;;;4.68;0.70;;;;;;;17.10;52.49;97016.34;5059708;28;20058;-77
2022/09/21 10:23:50;;;;;;;2.90;0.70;;;;;;;17.56;53.83;97007.34;5067438;28;20618;-76
2022/09/21 10:26:18;;;;;;;1.50;0.55;;;;;;;19.35;51.12;96995.88;5065285;28;20036;-76
2022/09/21 10:28:58;;;;;;;3.70;0.55;;;;;;;19.10;49.92;97002.66;5048459;28;20032;-76
2022/09/21 10:31:29;;;;;;;1.10;0.63;;;;;;;19.65;48.58;97001.81;5050867;28;20032;-76
2022/09/21 10:34:15;;;;;;;1.20;0.60;;;;;;;20.04;47.72;96988.84;5047629;28;20078;-76
2022/09/21 10:36:48;;;;;;;2.28;0.63;;;;;;;19.47;48.19;96991.63;5049053;28;20041;-76
2022/09/21 10:39:30;;;;;;;2.25;0.68;;;;;;;20.00;48.74;96986.56;5070126;28;20028;-76
2022/09/21 10:41:58;;;;;;;1.42;0.68;;;;;;;18.51;48.71;96995.78;5062287;28;20592;-77
2022/09/21 10:44:43;;;;;;;10.50;4.97;;;;;;;19.90;47.40;96987.97;5064370;28;20037;-76
2022/09/21 10:47:20;;;;;;;1.13;0.63;;;;;;;18.72;47.68;96987.00;5065862;28;20047;-76
2022/09/21 10:49:49;;;;;;;3.97;1.33;;;;;;;18.78;48.47;96994.22;5072817;28;20702;-76
2022/09/21 10:52:18;;;;;;;3.10;1.15;;;;;;;19.65;47.10;96984.97;5062349;28;20114;-76
2022/09/21 10:54:47;;;;;;;4.40;0.90;;;;;;;19.79;46.94;96981.34;5064298;28;20077;-76
2022/09/21 10:57:18;;;;;;;3.38;0.73;;;;;;;19.52;48.00;96989.19;5057391;28;20085;-76
2022/09/21 10:59:43;;;;;;;3.83;1.95;;;;;;;19.99;44.74;96984.09;5057959;28;20045;-76
2022/09/21 11:02:31;;;;;;;6.70;2.17;;;;;;;19.77;47.14;96981.53;5038476;28;20041;-76
2022/09/21 11:05:35;;;;;;;1.58;0.63;;;;;;;18.37;49.30;96997.50;5040884;28;20475;-76
2022/09/21 11:08:10;;;;;;;4.07;1.60;;;;;;;19.29;46.53;96986.00;5033453;28;20040;-76
2022/09/21 11:10:48;;;;;;;4.13;1.42;;;;;;;18.96;47.33;96993.75;5047049;28;20049;-76
2022/09/21 11:13:17;;;;;;;1.92;0.63;;;;;;;18.84;46.46;96990.78;5062407;28;20042;-76
2022/09/21 11:16:17;;;;;;;5.70;1.95;;;;;;;19.45;46.48;96991.00;5048132;28;20059;-76
2022/09/21 11:18:54;;;;;;;3.20;0.68;;;;;;;17.87;49.50;96999.19;5063693;28;20054;-76
2022/09/21 11:21:28;;;;;;;2.97;1.00;;;;;;;19.38;46.63;96987.47;5065328;28;20032;-76
2022/09/21 11:24:30;;;;;;;2.65;1.10;;;;;;;20.28;43.98;96977.59;5065758;28;20045;-76
2022/09/21 11:27:09;;;;;;;1.10;0.60;;;;;;;20.39;41.95;96987.69;5052352;28;20028;-76
2022/09/21 11:30:08;;;;;;;2.40;0.88;;;;;;;17.68;45.84;96989.94;5055349;28;20032;-75
2022/09/21 11:32:47;;;;;;;3.72;0.90;;;;;;;18.26;46.37;96984.69;5055809;28;20044;-76
2022/09/21 11:35:20;;;;;;;2.15;0.65;;;;;;;18.53;46.04;96980.44;5051773;28;20025;-75
2022/09/21 11:38:03;;;;;;;1.42;0.80;;;;;;;18.65;46.66;96980.75;5059484;28;20032;-76
2022/09/21 11:40:46;;;;;;;3.83;0.90;;;;;;;18.41;45.61;96979.28;5055756;28;20028;-76
2022/09/21 11:43:21;;;;;;;1.52;0.60;;;;;;;17.48;47.39;96979.03;5048665;28;20028;-76
2022/09/21 11:46:05;;;;;;;2.40;0.77;;;;;;;17.83;47.67;96968.66;5033717;28;21580;-77
2022/09/21 11:48:59;;;;;;;2.65;0.77;;;;;;;17.90;50.31;96974.88;5036622;28;20036;-76
2022/09/21 11:51:51;;;;;;;1.23;0.60;;;;;;;18.17;45.95;96981.31;5038648;28;20507;-76
2022/09/21 11:54:32;;;;;;;4.25;1.25;;;;;;;18.05;43.80;96982.81;5037012;28;20140;-76
2022/09/21 11:57:03;;;;;;;2.40;0.90;;;;;;;17.43;45.70;96968.09;5036149;28;20032;-76
2022/09/21 11:59:49;;;;;;;3.92;1.33;;;;;;;17.58;47.52;96973.44;5039131;28;20918;-75